createdAt,value
2017-10-26T00:00:07.867Z,12.13
2017-10-26T00:02:35.515Z,7.60
2017-10-26T00:05:03.230Z,21.87
2017-10-26T00:07:30.873Z,11.17
2017-10-26T00:09:58.605Z,12.67
2017-10-26T00:12:26.250Z,12.60
2017-10-26T00:14:53.902Z,17.10
2017-10-26T00:17:21.623Z,13.97
2017-10-26T00:19:49.342Z,21.97
2017-10-26T00:22:17.080Z,9.07
2017-10-26T00:24:44.781Z,14.20
2017-10-26T00:27:12.476Z,13.80
2017-10-26T00:29:40.157Z,13.20
2017-10-26T00:32:07.828Z,5.77
2017-10-26T00:34:35.526Z,8.77
2017-10-26T00:37:03.242Z,16.23
2017-10-26T00:39:31.439Z,17.13
2017-10-26T00:41:59.126Z,9.10
2017-10-26T00:44:26.798Z,14.50
2017-10-26T00:46:54.509Z,17.40
2017-10-26T00:49:22.156Z,10.60
2017-10-26T00:51:49.856Z,15.30
2017-10-26T00:54:17.490Z,14.23
2017-10-26T00:56:45.114Z,10.53
2017-10-26T00:59:12.949Z,16.33
2017-10-26T01:01:40.664Z,15.50
2017-10-26T01:04:08.371Z,13.93
2017-10-26T01:06:35.946Z,13.20
2017-10-26T01:09:03.682Z,13.10
2017-10-26T01:11:31.322Z,11.97
2017-10-26T01:13:59.033Z,11.43
2017-10-26T01:16:26.674Z,12.83
2017-10-26T01:18:54.357Z,17.63
2017-10-26T01:21:22.013Z,15.27
2017-10-26T01:23:49.705Z,13.90
2017-10-26T01:26:17.368Z,20.77
2017-10-26T01:28:45.035Z,13.90
2017-10-26T01:31:12.703Z,17.53
2017-10-26T01:33:40.397Z,14.07
2017-10-26T01:36:08.048Z,19.97
2017-10-26T01:38:35.779Z,18.43
2017-10-26T01:41:03.471Z,22.33
2017-10-26T01:43:31.148Z,17.07
2017-10-26T01:45:58.802Z,16.40
2017-10-26T01:48:26.505Z,12.23
2017-10-26T01:50:54.176Z,12.33
2017-10-26T01:53:21.870Z,18.93
2017-10-26T01:55:49.554Z,15.67
2017-10-26T01:58:17.307Z,13.30
2017-10-26T02:00:44.955Z,14.60
2017-10-26T02:03:12.655Z,12.27
2017-10-26T02:05:40.340Z,17.30
2017-10-26T02:08:08.087Z,20.50
2017-10-26T02:10:35.745Z,13.33
2017-10-26T02:13:03.434Z,17.30
2017-10-26T02:15:31.120Z,13.40
2017-10-26T02:17:58.788Z,16.83
2017-10-26T02:20:26.474Z,16.50
2017-10-26T02:22:54.188Z,16.43
2017-10-26T02:25:21.886Z,22.57
2017-10-26T02:27:49.569Z,15.13
2017-10-26T02:30:29.012Z,14.40
2017-10-26T02:32:56.654Z,19.40
2017-10-26T02:35:24.354Z,16.27
2017-10-26T02:37:52.008Z,17.63
2017-10-26T02:40:19.724Z,21.70
2017-10-26T02:42:47.377Z,12.43
2017-10-26T02:45:15.082Z,16.07
2017-10-26T02:47:42.737Z,17.43
2017-10-26T02:50:10.439Z,18.67
2017-10-26T02:52:38.103Z,22.70
2017-10-26T02:55:05.822Z,25.63
2017-10-26T02:57:33.473Z,15.17
2017-10-26T03:00:01.159Z,14.17
2017-10-26T03:02:28.822Z,23.13
2017-10-26T03:04:56.518Z,24.60
2017-10-26T03:07:24.163Z,21.60
2017-10-26T03:09:51.880Z,14.10
2017-10-26T03:12:19.551Z,24.60
2017-10-26T03:14:47.195Z,20.60
2017-10-26T03:17:14.878Z,18.07
2017-10-26T03:19:42.536Z,20.10
2017-10-26T03:22:10.207Z,16.50
2017-10-26T03:24:37.859Z,20.80
2017-10-26T03:27:05.549Z,22.50
2017-10-26T03:29:33.203Z,16.33
2017-10-26T03:32:00.887Z,26.63
2017-10-26T03:34:28.514Z,29.67
2017-10-26T03:36:56.221Z,18.30
2017-10-26T03:39:23.912Z,27.27
2017-10-26T03:41:51.614Z,28.17
2017-10-26T03:44:19.266Z,19.30
2017-10-26T03:46:46.970Z,19.33
2017-10-26T03:49:14.616Z,19.80
2017-10-26T03:51:42.292Z,24.90
2017-10-26T03:54:09.953Z,21.20
2017-10-26T03:56:37.629Z,23.03
2017-10-26T03:59:05.340Z,25.83
2017-10-26T04:01:33.020Z,21.83
2017-10-26T04:04:00.734Z,25.53
2017-10-26T04:06:28.426Z,22.73
2017-10-26T04:08:56.149Z,28.87
2017-10-26T04:11:23.956Z,28.93
2017-10-26T04:13:51.698Z,28.23
2017-10-26T04:16:19.360Z,24.80
2017-10-26T04:18:47.065Z,27.33
2017-10-26T04:21:14.780Z,26.17
2017-10-26T04:23:42.502Z,26.77
2017-10-26T04:26:10.178Z,26.53
2017-10-26T04:28:37.913Z,28.03
2017-10-26T04:31:05.594Z,29.13
2017-10-26T04:33:33.353Z,41.53
2017-10-26T04:36:01.042Z,38.03
2017-10-26T04:38:28.790Z,27.27
2017-10-26T04:40:56.512Z,43.23
2017-10-26T04:43:24.241Z,29.57
2017-10-26T04:45:51.902Z,33.07
2017-10-26T04:48:19.658Z,27.20
2017-10-26T04:50:47.313Z,28.47
2017-10-26T04:53:14.975Z,31.37
2017-10-26T04:55:42.656Z,25.67
2017-10-26T04:58:10.328Z,27.87
2017-10-26T05:00:38.013Z,32.30
2017-10-26T05:03:05.712Z,35.17
2017-10-26T05:05:33.420Z,54.03
2017-10-26T05:08:01.077Z,44.67
2017-10-26T05:10:28.792Z,32.13
2017-10-26T05:12:56.441Z,30.80
2017-10-26T05:15:24.133Z,40.17
2017-10-26T05:17:51.770Z,33.40
2017-10-26T05:20:19.516Z,32.57
2017-10-26T05:22:47.183Z,40.07
2017-10-26T05:25:14.875Z,32.27
2017-10-26T05:27:42.549Z,32.43
2017-10-26T05:30:10.274Z,35.03
2017-10-26T05:32:38.806Z,30.30
2017-10-26T05:35:06.543Z,37.43
2017-10-26T05:37:34.200Z,33.63
2017-10-26T05:40:01.915Z,34.13
2017-10-26T05:42:29.614Z,31.53
2017-10-26T05:44:57.268Z,29.57
2017-10-26T05:47:25.017Z,23.27
2017-10-26T05:49:52.678Z,34.50
2017-10-26T05:52:20.392Z,28.60
2017-10-26T05:54:48.110Z,26.00
2017-10-26T05:57:15.800Z,28.13
2017-10-26T05:59:43.465Z,33.33
2017-10-26T06:02:11.160Z,34.90
2017-10-26T06:04:38.837Z,24.97
2017-10-26T06:07:06.535Z,24.70
2017-10-26T06:09:34.214Z,22.50
2017-10-26T06:12:01.833Z,29.43
2017-10-26T06:14:29.498Z,25.70
2017-10-26T06:16:57.208Z,27.23
2017-10-26T06:19:24.864Z,24.50
2017-10-26T06:21:52.609Z,24.43
2017-10-26T06:24:20.273Z,23.70
2017-10-26T06:26:47.958Z,30.03
2017-10-26T06:29:15.688Z,29.10
2017-10-26T06:31:43.373Z,27.87
2017-10-26T06:34:11.048Z,29.83
2017-10-26T06:36:38.707Z,23.03
2017-10-26T06:39:06.450Z,26.37
2017-10-26T06:41:34.104Z,22.93
2017-10-26T06:44:01.804Z,25.63
2017-10-26T06:46:29.515Z,27.10
2017-10-26T06:48:57.228Z,32.63
2017-10-26T06:51:24.905Z,24.57
2017-10-26T06:53:52.606Z,22.03
2017-10-26T06:56:20.303Z,18.83
2017-10-26T06:58:47.982Z,24.53
2017-10-26T07:01:15.634Z,22.73
2017-10-26T07:03:43.325Z,24.57
2017-10-26T07:06:10.992Z,16.97
2017-10-26T07:08:38.694Z,28.13
2017-10-26T07:11:06.342Z,27.50
2017-10-26T07:13:34.042Z,18.83
2017-10-26T07:16:01.697Z,36.33
2017-10-26T07:18:29.388Z,22.00
2017-10-26T07:20:57.042Z,18.50
2017-10-26T07:23:24.754Z,19.87
2017-10-26T07:25:52.406Z,18.47
2017-10-26T07:28:20.110Z,21.93
2017-10-26T07:30:47.800Z,22.73
2017-10-26T07:33:15.438Z,19.43
2017-10-26T07:35:43.080Z,19.87
2017-10-26T07:38:10.747Z,17.77
2017-10-26T07:40:38.494Z,15.57
2017-10-26T07:43:06.168Z,16.53
2017-10-26T07:45:33.867Z,21.93
2017-10-26T07:48:01.523Z,18.23
2017-10-26T07:50:29.216Z,15.93
2017-10-26T07:52:56.870Z,17.17
2017-10-26T07:55:24.578Z,15.53
2017-10-26T07:57:52.268Z,17.90
2017-10-26T08:00:19.942Z,17.00
2017-10-26T08:02:47.615Z,21.03
2017-10-26T08:05:15.266Z,20.20
2017-10-26T08:07:42.936Z,19.13
2017-10-26T08:10:10.629Z,16.47
2017-10-26T08:12:38.249Z,19.33
2017-10-26T08:15:05.889Z,16.43
2017-10-26T08:17:33.603Z,14.87
2017-10-26T08:20:01.256Z,16.70
2017-10-26T08:22:28.844Z,17.30
2017-10-26T08:24:56.542Z,17.60
2017-10-26T08:27:24.220Z,15.57
2017-10-26T08:29:51.923Z,16.40
2017-10-26T08:32:19.588Z,31.60
2017-10-26T08:34:47.257Z,167.20
2017-10-26T08:37:19.179Z,38.40
2017-10-26T08:39:47.412Z,20.83
2017-10-26T08:42:19.941Z,22.70
2017-10-26T08:44:47.550Z,18.00
2017-10-26T08:47:15.202Z,50.37
2017-10-26T08:49:49.989Z,19.47
2017-10-26T08:52:18.216Z,22.27
2017-10-26T08:54:45.861Z,18.60
2017-10-26T08:57:13.518Z,16.80
2017-10-26T08:59:41.208Z,18.93
2017-10-26T09:04:58.273Z,16.87
2017-10-26T09:07:33.336Z,17.63
2017-10-26T09:10:01.413Z,16.97
2017-10-26T09:12:29.090Z,17.20
2017-10-26T09:14:56.732Z,17.13
2017-10-26T09:17:24.386Z,21.20
2017-10-26T09:19:51.997Z,20.43
2017-10-26T09:22:19.742Z,19.70
2017-10-26T09:24:48.311Z,18.60
2017-10-26T09:27:16.058Z,20.40
2017-10-26T09:29:43.741Z,19.40
2017-10-26T09:32:11.487Z,21.43
2017-10-26T09:34:39.189Z,18.93
2017-10-26T09:37:06.896Z,20.20
2017-10-26T09:39:34.620Z,22.13
2017-10-26T09:42:02.298Z,21.03
2017-10-26T09:44:30.002Z,21.70
2017-10-26T09:46:57.669Z,20.53
2017-10-26T09:49:25.312Z,24.87
2017-10-26T09:51:52.983Z,22.30
2017-10-26T09:54:20.737Z,48.20
2017-10-26T09:56:48.407Z,35.73
2017-10-26T09:59:16.106Z,33.53
2017-10-26T10:01:43.778Z,39.13
2017-10-26T10:04:11.510Z,25.77
2017-10-26T10:06:39.230Z,25.73
2017-10-26T10:09:06.995Z,31.33
2017-10-26T10:11:34.587Z,29.90
2017-10-26T10:14:02.220Z,30.03
2017-10-26T10:16:29.822Z,28.13
2017-10-26T10:18:57.534Z,32.30
2017-10-26T10:21:25.220Z,29.77
2017-10-26T10:23:52.962Z,30.50
2017-10-26T10:26:20.669Z,28.27
2017-10-26T10:28:48.420Z,29.60
2017-10-26T10:31:16.102Z,36.00
2017-10-26T10:33:43.857Z,38.47
2017-10-26T10:36:11.497Z,33.13
2017-10-26T10:38:39.217Z,38.73
2017-10-26T10:41:07.006Z,32.63
2017-10-26T10:43:34.729Z,32.43
2017-10-26T10:46:02.376Z,37.77
2017-10-26T10:48:30.066Z,39.10
2017-10-26T10:50:57.773Z,40.57
2017-10-26T10:53:25.443Z,41.80
2017-10-26T10:55:53.158Z,38.53
2017-10-26T10:58:20.853Z,40.70
2017-10-26T11:00:48.556Z,40.60
2017-10-26T11:03:16.172Z,50.93
2017-10-26T11:05:43.811Z,46.20
2017-10-26T11:08:11.426Z,40.63
2017-10-26T11:10:39.115Z,51.53
2017-10-26T11:13:06.756Z,48.60
2017-10-26T11:15:34.401Z,47.67
2017-10-26T11:18:02.019Z,51.10
2017-10-26T11:20:29.659Z,57.10
2017-10-26T11:22:57.289Z,57.20
2017-10-26T11:25:25.024Z,41.77
2017-10-26T11:27:52.695Z,52.57
2017-10-26T11:30:20.390Z,59.67
2017-10-26T11:32:48.051Z,50.53
2017-10-26T11:35:15.757Z,57.43
2017-10-26T11:37:43.397Z,43.90
2017-10-26T11:40:11.091Z,43.90
2017-10-26T11:42:39.803Z,53.53
2017-10-26T11:45:07.473Z,52.00
2017-10-26T11:47:35.230Z,102.17
2017-10-26T11:50:02.903Z,44.43
2017-10-26T11:52:30.626Z,48.63
2017-10-26T11:54:58.307Z,52.03
2017-10-26T11:57:26.036Z,51.53
2017-10-26T11:59:53.752Z,48.23
2017-10-26T12:02:21.462Z,47.00
2017-10-26T12:04:49.144Z,52.50
2017-10-26T12:07:16.867Z,43.50
2017-10-26T12:09:44.549Z,39.47
2017-10-26T12:12:12.259Z,46.60
2017-10-26T12:14:39.962Z,47.70
2017-10-26T12:17:07.662Z,38.57
2017-10-26T12:19:35.335Z,38.13
2017-10-26T12:22:03.058Z,40.23
2017-10-26T12:24:30.731Z,43.50
2017-10-26T12:26:58.385Z,36.10
2017-10-26T12:29:26.051Z,34.73
2017-10-26T12:31:53.661Z,37.13
2017-10-26T12:34:21.362Z,41.00
2017-10-26T12:36:48.999Z,37.83
2017-10-26T12:39:16.724Z,34.20
2017-10-26T12:41:44.357Z,29.57
2017-10-26T12:44:12.060Z,36.60
2017-10-26T12:46:39.754Z,31.37
2017-10-26T12:49:07.484Z,28.70
2017-10-26T12:51:35.216Z,52.70
2017-10-26T12:54:02.975Z,46.80
2017-10-26T12:56:30.733Z,31.10
2017-10-26T12:58:58.876Z,28.33
2017-10-26T13:01:26.622Z,25.70
2017-10-26T13:03:54.451Z,26.03
2017-10-26T13:06:22.159Z,26.87
2017-10-26T13:08:49.996Z,29.10
2017-10-26T13:11:17.751Z,27.47
2017-10-26T13:13:45.555Z,24.33
2017-10-26T13:16:13.342Z,29.30
2017-10-26T13:18:41.020Z,30.00
2017-10-26T13:21:08.804Z,26.57
2017-10-26T13:23:36.474Z,24.13
2017-10-26T13:26:04.189Z,28.53
2017-10-26T13:28:31.857Z,26.80
2017-10-26T13:30:59.569Z,20.43
2017-10-26T13:33:27.224Z,26.87
2017-10-26T13:35:54.919Z,24.87
2017-10-26T13:38:22.536Z,23.63
2017-10-26T13:40:50.178Z,24.63
2017-10-26T13:43:17.873Z,28.37
2017-10-26T13:45:45.563Z,18.93
2017-10-26T13:48:13.207Z,22.60
2017-10-26T13:50:40.920Z,22.73
2017-10-26T13:53:08.585Z,21.87
2017-10-26T13:55:36.976Z,21.63
2017-10-26T13:58:04.656Z,27.23
2017-10-26T14:00:32.363Z,24.93
2017-10-26T14:03:00.077Z,25.73
2017-10-26T14:05:27.782Z,22.00
2017-10-26T14:07:55.452Z,20.00
2017-10-26T14:10:23.189Z,20.90
2017-10-26T14:12:50.877Z,18.27
2017-10-26T14:15:18.517Z,18.90
2017-10-26T14:17:46.213Z,20.37
2017-10-26T14:20:13.869Z,23.87
2017-10-26T14:22:41.569Z,20.87
2017-10-26T14:25:09.227Z,21.33
2017-10-26T14:27:40.808Z,29.60
2017-10-26T14:30:12.104Z,21.20
2017-10-26T14:32:39.726Z,19.43
2017-10-26T14:35:07.376Z,22.60
2017-10-26T14:37:35.091Z,21.80
2017-10-26T14:40:02.795Z,23.43
2017-10-26T14:42:31.637Z,21.63
2017-10-26T14:45:00.689Z,20.93
2017-10-26T14:47:28.503Z,17.43
2017-10-26T14:49:56.253Z,18.03
2017-10-26T14:52:23.986Z,22.07
2017-10-26T14:54:51.654Z,23.93
2017-10-26T14:57:19.305Z,22.23
2017-10-26T14:59:46.968Z,19.37
2017-10-26T15:02:14.701Z,22.57
2017-10-26T15:04:42.282Z,24.23
2017-10-26T15:07:09.973Z,19.90
2017-10-26T15:09:37.662Z,20.23
2017-10-26T15:12:13.483Z,22.73
2017-10-26T15:14:43.204Z,25.37
2017-10-26T15:17:23.015Z,24.57
2017-10-26T15:19:58.575Z,20.13
2017-10-26T15:22:33.402Z,19.30
2017-10-26T15:30:50.188Z,24.43
2017-10-26T15:33:28.966Z,25.00
2017-10-26T15:36:07.363Z,21.90
2017-10-26T15:38:35.043Z,26.43
2017-10-26T15:43:41.875Z,21.73
2017-10-26T15:46:10.147Z,21.90
2017-10-26T15:48:38.118Z,27.03
2017-10-26T15:51:11.347Z,25.00
2017-10-26T15:53:44.812Z,29.10
2017-10-26T15:56:24.076Z,22.40
2017-10-26T15:58:51.978Z,26.53
2017-10-26T16:01:19.599Z,24.47
2017-10-26T16:03:47.280Z,26.43
2017-10-26T16:06:14.907Z,27.47
2017-10-26T16:08:48.973Z,27.13
2017-10-26T16:14:01.340Z,23.53
2017-10-26T16:16:40.613Z,21.10
2017-10-26T16:22:05.982Z,19.70
2017-10-26T16:24:40.654Z,20.77
2017-10-26T16:27:17.142Z,18.93
2017-10-26T16:29:59.762Z,32.77
2017-10-26T16:32:33.355Z,25.77
2017-10-26T16:35:06.464Z,19.67
2017-10-26T16:37:34.867Z,25.27
2017-10-26T16:40:02.555Z,22.67
2017-10-26T16:42:30.177Z,24.10
2017-10-26T16:44:57.857Z,25.90
2017-10-26T16:47:25.590Z,29.57
2017-10-26T16:49:53.251Z,22.93
2017-10-26T16:52:20.960Z,21.20
2017-10-26T16:54:48.575Z,20.33
2017-10-26T16:57:16.264Z,22.63
2017-10-26T16:59:43.916Z,19.80
2017-10-26T17:02:11.640Z,21.93
2017-10-26T17:04:39.678Z,23.23
2017-10-26T17:07:07.398Z,18.43
2017-10-26T17:09:35.054Z,23.23
2017-10-26T17:12:02.761Z,23.00
2017-10-26T17:14:30.412Z,18.60
2017-10-26T17:16:58.102Z,19.13
2017-10-26T17:19:25.758Z,19.40
2017-10-26T17:21:53.454Z,20.17
2017-10-26T17:24:21.109Z,22.67
2017-10-26T17:26:48.795Z,23.50
2017-10-26T17:29:16.465Z,25.77
2017-10-26T17:31:44.158Z,19.80
2017-10-26T17:34:16.603Z,16.10
2017-10-26T17:36:44.234Z,19.63
2017-10-26T17:39:20.051Z,18.87
2017-10-26T17:41:55.244Z,22.73
2017-10-26T17:44:22.847Z,16.93
2017-10-26T17:46:50.768Z,19.30
2017-10-26T17:49:18.525Z,18.60
2017-10-26T17:51:46.185Z,58.43
2017-10-26T17:54:13.875Z,32.93
2017-10-26T17:56:41.540Z,21.23
2017-10-26T17:59:09.259Z,29.63
2017-10-26T18:01:36.912Z,24.60
2017-10-26T18:04:04.581Z,22.77
2017-10-26T18:06:32.226Z,23.33
2017-10-26T18:08:59.846Z,20.53
2017-10-26T18:11:27.451Z,23.43
2017-10-26T18:13:55.182Z,21.30
2017-10-26T18:16:22.834Z,23.50
2017-10-26T18:18:50.513Z,21.07
2017-10-26T18:21:18.192Z,25.30
2017-10-26T18:23:45.956Z,22.40
2017-10-26T18:26:14.114Z,16.77
2017-10-26T18:28:41.814Z,17.43
2017-10-26T18:31:09.458Z,20.87
2017-10-26T18:33:37.109Z,22.33
2017-10-26T18:36:04.722Z,17.73
2017-10-26T18:38:32.378Z,16.27
2017-10-26T18:40:59.977Z,14.43
2017-10-26T18:43:28.637Z,27.17
2017-10-26T18:45:56.266Z,19.07
2017-10-26T18:48:23.926Z,31.57
2017-10-26T18:50:51.586Z,20.90
2017-10-26T18:53:19.256Z,22.63
2017-10-26T18:55:46.922Z,23.27
2017-10-26T18:58:14.680Z,21.97
2017-10-26T19:00:42.496Z,20.27
2017-10-26T19:03:10.145Z,18.67
2017-10-26T19:05:37.789Z,19.57
2017-10-26T19:08:05.403Z,18.63
2017-10-26T19:10:33.104Z,15.10
2017-10-26T19:13:00.701Z,17.57
2017-10-26T19:15:28.417Z,19.13
2017-10-26T19:17:56.005Z,12.60
2017-10-26T19:20:23.771Z,15.50
2017-10-26T19:22:51.372Z,22.57
2017-10-26T19:25:19.012Z,22.00
2017-10-26T19:27:46.620Z,17.93
2017-10-26T19:30:14.353Z,17.90
2017-10-26T19:32:41.963Z,15.50
2017-10-26T19:35:09.694Z,14.83
2017-10-26T19:37:37.347Z,15.30
2017-10-26T19:40:05.105Z,16.17
2017-10-26T19:42:32.737Z,14.27
2017-10-26T19:45:00.351Z,19.30
2017-10-26T19:47:27.973Z,17.97
2017-10-26T19:49:55.638Z,17.90
2017-10-26T19:52:23.267Z,14.60
2017-10-26T19:54:50.927Z,16.50
2017-10-26T19:57:18.573Z,18.60
2017-10-26T19:59:46.236Z,14.80
2017-10-26T20:02:13.915Z,23.10
2017-10-26T20:04:41.609Z,18.97
2017-10-26T20:07:09.268Z,13.70
2017-10-26T20:09:36.851Z,20.77
2017-10-26T20:12:04.481Z,24.07
2017-10-26T20:14:32.074Z,20.40
2017-10-26T20:16:59.688Z,21.17
2017-10-26T20:19:27.322Z,16.40
2017-10-26T20:21:55.019Z,15.27
2017-10-26T20:24:22.606Z,26.47
2017-10-26T20:26:50.263Z,20.23
2017-10-26T20:29:24.443Z,22.97
2017-10-26T20:31:52.062Z,18.67
2017-10-26T20:34:19.686Z,23.63
2017-10-26T20:36:47.287Z,23.80
2017-10-26T20:39:14.927Z,19.50
2017-10-26T20:41:42.511Z,21.37
2017-10-26T20:44:10.122Z,19.63
2017-10-26T20:46:37.726Z,22.57
2017-10-26T20:49:11.047Z,26.00
2017-10-26T20:51:44.362Z,16.03
2017-10-26T20:54:17.439Z,18.70
2017-10-26T20:56:50.525Z,21.53
2017-10-26T20:59:23.756Z,21.70
2017-10-26T21:01:58.219Z,17.00
2017-10-26T21:04:31.250Z,16.50
2017-10-26T21:06:59.532Z,16.40
2017-10-26T21:09:27.155Z,16.30
2017-10-26T21:12:00.323Z,17.07
2017-10-26T21:14:28.806Z,19.17
2017-10-26T21:16:56.395Z,17.90
2017-10-26T21:19:24.027Z,18.13
2017-10-26T21:21:51.675Z,19.07
2017-10-26T21:24:19.315Z,17.53
2017-10-26T21:26:46.970Z,21.17
2017-10-26T21:29:14.595Z,23.73
2017-10-26T21:31:42.177Z,15.40
2017-10-26T21:34:09.808Z,16.23
2017-10-26T21:36:37.398Z,17.20
2017-10-26T21:39:05.116Z,13.23
2017-10-26T21:41:32.793Z,17.50
2017-10-26T21:44:00.446Z,17.13
2017-10-26T21:46:28.082Z,18.10
2017-10-26T21:48:55.728Z,16.27
2017-10-26T21:51:23.352Z,9.77
2017-10-26T21:53:50.998Z,22.13
2017-10-26T21:56:18.635Z,14.50
2017-10-26T21:58:46.324Z,12.80
2017-10-26T22:01:13.943Z,21.43
2017-10-26T22:03:41.595Z,17.57
2017-10-26T22:06:09.234Z,15.70
2017-10-26T22:08:36.894Z,12.70
2017-10-26T22:11:04.535Z,14.10
2017-10-26T22:13:32.180Z,16.53
2017-10-26T22:15:59.805Z,13.60
2017-10-26T22:18:27.397Z,17.87
2017-10-26T22:20:55.035Z,14.83
2017-10-26T22:23:22.662Z,15.40
2017-10-26T22:25:50.260Z,17.40
2017-10-26T22:28:17.889Z,16.17
2017-10-26T22:30:45.584Z,12.73
2017-10-26T22:33:13.231Z,16.43
2017-10-26T22:35:40.885Z,20.57
2017-10-26T22:38:08.505Z,16.30
2017-10-26T22:40:36.110Z,12.17
2017-10-26T22:43:03.733Z,13.20
2017-10-26T22:45:31.369Z,15.87
2017-10-26T22:47:58.986Z,20.80
2017-10-26T22:50:26.639Z,14.90
2017-10-26T22:52:54.270Z,12.17
2017-10-26T22:55:21.909Z,17.03
2017-10-26T22:57:49.599Z,17.30
2017-10-26T23:00:17.284Z,15.53
2017-10-26T23:02:44.987Z,14.53
2017-10-26T23:05:12.569Z,15.10
2017-10-26T23:07:40.175Z,18.40
2017-10-26T23:10:07.774Z,13.00
2017-10-26T23:12:35.402Z,18.10
2017-10-26T23:15:03.001Z,17.23
2017-10-26T23:17:30.720Z,15.07
2017-10-26T23:19:58.307Z,13.43
2017-10-26T23:22:25.960Z,16.40
2017-10-26T23:24:53.587Z,16.50
2017-10-26T23:27:21.253Z,13.30
2017-10-26T23:29:48.934Z,14.30
2017-10-26T23:32:16.579Z,23.27
2017-10-26T23:34:44.196Z,15.30
2017-10-26T23:37:12.878Z,15.20
2017-10-26T23:39:40.590Z,16.70
2017-10-26T23:42:08.177Z,23.80
2017-10-26T23:44:35.884Z,17.97
2017-10-26T23:47:03.466Z,16.37
2017-10-26T23:49:31.142Z,20.30
2017-10-26T23:51:58.717Z,21.37
2017-10-26T23:54:26.407Z,17.30
2017-10-26T23:56:54.002Z,19.90
2017-10-26T23:59:21.686Z,25.07
